sensor_id;sensor_type;location;lat;lon;timestamp;pressure;altitude;pressure_sealevel;temperature;humidity
75460;BME280;64039;53.060;9.342;2023-06-22T00:01:52;101579.50;;;16.87;100.00
75460;BME280;64039;53.060;9.342;2023-06-22T00:04:17;101568.94;;;16.81;100.00
75460;BME280;64039;53.060;9.342;2023-06-22T00:06:43;101570.75;;;16.88;100.00
75460;BME280;64039;53.060;9.342;2023-06-22T00:09:08;101573.44;;;16.96;100.00
75460;BME280;64039;53.060;9.342;2023-06-22T00:11:38;101583.97;;;16.93;100.00
75460;BME280;64039;53.060;9.342;2023-06-22T00:14:04;101577.78;;;16.91;100.00
75460;BME280;64039;53.060;9.342;2023-06-22T00:16:31;101584.75;;;16.89;100.00
75460;BME280;64039;53.060;9.342;2023-06-22T00:18:56;101579.50;;;16.87;100.00
75460;BME280;64039;53.060;9.342;2023-06-22T00:21:28;101583.00;;;16.85;100.00
75460;BME280;64039;53.060;9.342;2023-06-22T00:23:54;101578.56;;;16.77;100.00
75460;BME280;64039;53.060;9.342;2023-06-22T00:26:20;101586.44;;;16.79;100.00
75460;BME280;64039;53.060;9.342;2023-06-22T00:28:46;101583.00;;;16.85;100.00
75460;BME280;64039;53.060;9.342;2023-06-22T00:31:13;101578.63;;;16.87;100.00
75460;BME280;64039;53.060;9.342;2023-06-22T00:33:38;101569.81;;;16.78;100.00
75460;BME280;64039;53.060;9.342;2023-06-22T00:36:04;101582.84;;;16.66;100.00
75460;BME280;64039;53.060;9.342;2023-06-22T00:38:30;101581.13;;;16.68;100.00
75460;BME280;64039;53.060;9.342;2023-06-22T00:40:55;101573.19;;;16.65;100.00
75460;BME280;64039;53.060;9.342;2023-06-22T00:43:21;101580.25;;;16.71;100.00
75460;BME280;64039;53.060;9.342;2023-06-22T00:45:46;101577.59;;;16.67;100.00
75460;BME280;64039;53.060;9.342;2023-06-22T00:48:13;101588.88;;;16.53;100.00
75460;BME280;64039;53.060;9.342;2023-06-22T00:50:39;101588.78;;;16.45;100.00
75460;BME280;64039;53.060;9.342;2023-06-22T00:53:07;101581.81;;;16.50;100.00
75460;BME280;64039;53.060;9.342;2023-06-22T00:55:37;101585.34;;;16.49;100.00
75460;BME280;64039;53.060;9.342;2023-06-22T00:58:04;101585.25;;;16.41;100.00
75460;BME280;64039;53.060;9.342;2023-06-22T01:00:33;101580.81;;;16.34;100.00
75460;BME280;64039;53.060;9.342;2023-06-22T01:02:59;101582.53;;;16.30;100.00
75460;BME280;64039;53.060;9.342;2023-06-22T01:05:25;101583.44;;;16.34;100.00
75460;BME280;64039;53.060;9.342;2023-06-22T01:18:35;101577.41;;;16.46;100.00
75460;BME280;64039;53.060;9.342;2023-06-22T01:21:04;101582.72;;;16.49;100.00
75460;BME280;64039;53.060;9.342;2023-06-22T01:26:11;101575.56;;;16.32;100.00
75460;BME280;64039;53.060;9.342;2023-06-22T01:28:48;101571.88;;;16.18;100.00
75460;BME280;64039;53.060;9.342;2023-06-22T01:31:19;101565.63;;;16.05;100.00
75460;BME280;64039;53.060;9.342;2023-06-22T01:33:49;101573.41;;;15.94;100.00
75460;BME280;64039;53.060;9.342;2023-06-22T01:36:17;101575.22;;;15.98;100.00
75460;BME280;64039;53.060;9.342;2023-06-22T01:38:43;101571.69;;;15.96;100.00
75460;BME280;64039;53.060;9.342;2023-06-22T01:41:10;101570.06;;;16.12;100.00
75460;BME280;64039;53.060;9.342;2023-06-22T01:43:36;101572.66;;;16.08;100.00
75460;BME280;64039;53.060;9.342;2023-06-22T01:46:04;101562.91;;;15.94;100.00
75460;BME280;64039;53.060;9.342;2023-06-22T01:48:30;101551.47;;;15.89;100.00
75460;BME280;64039;53.060;9.342;2023-06-22T01:50:56;101561.94;;;15.86;100.00
75460;BME280;64039;53.060;9.342;2023-06-22T01:53:23;101562.75;;;15.82;100.00
75460;BME280;64039;53.060;9.342;2023-06-22T01:55:48;101561.72;;;15.70;100.00
75460;BME280;64039;53.060;9.342;2023-06-22T01:58:15;101555.63;;;15.73;100.00
75460;BME280;64039;53.060;9.342;2023-06-22T02:00:45;101550.56;;;15.85;100.00
75460;BME280;64039;53.060;9.342;2023-06-22T02:03:19;101559.38;;;15.92;100.00
75460;BME280;64039;53.060;9.342;2023-06-22T02:05:55;101558.56;;;15.99;100.00
75460;BME280;64039;53.060;9.342;2023-06-22T02:08:48;101551.53;;;15.95;100.00
75460;BME280;64039;53.060;9.342;2023-06-22T02:11:15;101555.97;;;16.02;100.00
75460;BME280;64039;53.060;9.342;2023-06-22T02:13:41;101557.69;;;15.97;100.00
75460;BME280;64039;53.060;9.342;2023-06-22T02:16:10;101556.66;;;15.84;100.00
75460;BME280;64039;53.060;9.342;2023-06-22T02:18:36;101558.50;;;15.90;100.00
75460;BME280;64039;53.060;9.342;2023-06-22T02:21:02;101560.19;;;15.86;100.00
75460;BME280;64039;53.060;9.342;2023-06-22T02:23:28;101558.41;;;15.84;100.00
75460;BME280;64039;53.060;9.342;2023-06-22T02:25:53;101561.06;;;15.85;100.00
75460;BME280;64039;53.060;9.342;2023-06-22T02:28:19;101567.03;;;15.78;100.00
75460;BME280;64039;53.060;9.342;2023-06-22T02:30:44;101559.16;;;15.77;100.00
75460;BME280;64039;53.060;9.342;2023-06-22T02:33:10;101563.50;;;15.73;100.00
75460;BME280;64039;53.060;9.342;2023-06-22T02:35:35;101561.78;;;15.74;100.00
75460;BME280;64039;53.060;9.342;2023-06-22T02:38:03;101561.72;;;15.70;100.00
75460;BME280;64039;53.060;9.342;2023-06-22T02:40:29;101559.16;;;15.74;100.00
75460;BME280;64039;53.060;9.342;2023-06-22T02:42:56;101557.28;;;15.63;100.00
75460;BME280;64039;53.060;9.342;2023-06-22T02:45:23;101553.78;;;15.64;100.00
75460;BME280;64039;53.060;9.342;2023-06-22T02:47:49;101556.38;;;15.63;100.00
75460;BME280;64039;53.060;9.342;2023-06-22T02:50:15;101564.28;;;15.64;100.00
75460;BME280;64039;53.060;9.342;2023-06-22T02:52:40;101561.56;;;15.58;100.00
75460;BME280;64039;53.060;9.342;2023-06-22T02:55:06;101548.44;;;15.58;100.00
75460;BME280;64039;53.060;9.342;2023-06-22T02:57:32;101551.00;;;15.52;100.00
75460;BME280;64039;53.060;9.342;2023-06-22T02:59:59;101558.88;;;15.53;100.00
75460;BME280;64039;53.060;9.342;2023-06-22T03:02:24;101558.84;;;15.50;100.00
75460;BME280;64039;53.060;9.342;2023-06-22T03:04:51;101565.94;;;15.57;100.00
75460;BME280;64039;53.060;9.342;2023-06-22T03:07:19;101570.28;;;15.54;100.00
75460;BME280;64039;53.060;9.342;2023-06-22T03:09:44;101566.69;;;15.49;100.00
75460;BME280;64039;53.060;9.342;2023-06-22T03:12:10;101565.75;;;15.44;100.00
75460;BME280;64039;53.060;9.342;2023-06-22T03:14:36;101568.44;;;15.50;100.00
75460;BME280;64039;53.060;9.342;2023-06-22T03:17:01;101569.28;;;15.46;100.00
75460;BME280;64039;53.060;9.342;2023-06-22T03:19:29;101564.84;;;15.41;100.00
75460;BME280;64039;53.060;9.342;2023-06-22T03:21:57;101571.94;;;15.49;100.00
75460;BME280;64039;53.060;9.342;2023-06-22T03:24:22;101570.28;;;15.54;100.00
75460;BME280;64039;53.060;9.342;2023-06-22T03:26:48;101572.09;;;15.60;100.00
75460;BME280;64039;53.060;9.342;2023-06-22T03:29:13;101581.75;;;15.62;100.00
75460;BME280;64039;53.060;9.342;2023-06-22T03:31:39;101572.16;;;15.64;100.00
75460;BME280;64039;53.060;9.342;2023-06-22T03:34:05;101578.22;;;15.62;100.00
75460;BME280;64039;53.060;9.342;2023-06-22T03:36:30;101575.59;;;15.59;100.00
75460;BME280;64039;53.060;9.342;2023-06-22T03:38:56;101577.41;;;15.64;100.00
75460;BME280;64039;53.060;9.342;2023-06-22T03:41:21;101582.59;;;15.60;100.00
75460;BME280;64039;53.060;9.342;2023-06-22T03:43:47;101591.63;;;15.82;100.00
75460;BME280;64039;53.060;9.342;2023-06-22T03:46:12;101593.50;;;15.91;100.00
75460;BME280;64039;53.060;9.342;2023-06-22T03:48:38;101595.09;;;15.81;100.00
75460;BME280;64039;53.060;9.342;2023-06-22T03:51:03;101605.56;;;15.79;100.00
75460;BME280;64039;53.060;9.342;2023-06-22T03:53:29;101603.03;;;15.84;100.00
75460;BME280;64039;53.060;9.342;2023-06-22T03:55:55;101604.00;;;15.92;100.00
75460;BME280;64039;53.060;9.342;2023-06-22T03:58:21;101600.56;;;15.95;100.00
75460;BME280;64039;53.060;9.342;2023-06-22T04:00:48;101604.09;;;15.98;100.00
75460;BME280;64039;53.060;9.342;2023-06-22T04:03:14;101604.22;;;16.11;100.00
75460;BME280;64039;53.060;9.342;2023-06-22T04:05:40;101610.31;;;16.07;100.00
75460;BME280;64039;53.060;9.342;2023-06-22T04:08:06;101608.50;;;16.01;100.00
75460;BME280;64039;53.060;9.342;2023-06-22T04:10:32;101611.16;;;16.06;100.00
75460;BME280;64039;53.060;9.342;2023-06-22T04:12:57;101603.28;;;16.06;100.00
75460;BME280;64039;53.060;9.342;2023-06-22T04:15:23;101606.84;;;16.12;100.00
75460;BME280;64039;53.060;9.342;2023-06-22T04:17:48;101601.75;;;16.26;100.00
75460;BME280;64039;53.060;9.342;2023-06-22T04:20:14;101601.69;;;16.20;100.00
75460;BME280;64039;53.060;9.342;2023-06-22T04:22:39;101599.25;;;16.40;100.00
75460;BME280;64039;53.060;9.342;2023-06-22T04:25:05;101602.84;;;16.48;100.00
75460;BME280;64039;53.060;9.342;2023-06-22T04:27:33;101601.22;;;16.63;100.00
75460;BME280;64039;53.060;9.342;2023-06-22T04:30:03;101604.72;;;16.63;100.00
75460;BME280;64039;53.060;9.342;2023-06-22T04:32:29;101608.28;;;16.69;100.00
75460;BME280;64039;53.060;9.342;2023-06-22T04:34:54;101608.34;;;16.76;100.00
75460;BME280;64039;53.060;9.342;2023-06-22T04:37:20;101604.84;;;16.80;100.00
75460;BME280;64039;53.060;9.342;2023-06-22T04:39:49;101604.06;;;16.91;100.00
75460;BME280;64039;53.060;9.342;2023-06-22T04:42:15;101605.06;;;17.04;100.00
75460;BME280;64039;53.060;9.342;2023-06-22T04:44:40;101607.78;;;17.13;100.00
75460;BME280;64039;53.060;9.342;2023-06-22T04:47:08;101605.03;;;16.99;100.00
75460;BME280;64039;53.060;9.342;2023-06-22T04:49:34;101612.16;;;17.16;100.00
75460;BME280;64039;53.060;9.342;2023-06-22T04:52:04;101599.94;;;17.21;100.00
75460;BME280;64039;53.060;9.342;2023-06-22T04:54:30;101604.31;;;17.26;100.00
75460;BME280;64039;53.060;9.342;2023-06-22T04:56:59;101602.59;;;17.28;100.00
75460;BME280;64039;53.060;9.342;2023-06-22T04:59:27;101600.88;;;17.32;100.00
75460;BME280;64039;53.060;9.342;2023-06-22T05:02:00;101600.03;;;17.39;100.00
75460;BME280;64039;53.060;9.342;2023-06-22T05:04:27;101607.03;;;17.34;100.00
75460;BME280;64039;53.060;9.342;2023-06-22T05:06:54;101602.69;;;17.41;100.00
75460;BME280;64039;53.060;9.342;2023-06-22T05:09:20;101600.13;;;17.59;100.00
75460;BME280;64039;53.060;9.342;2023-06-22T05:11:46;101603.66;;;17.65;100.00
75460;BME280;64039;53.060;9.342;2023-06-22T05:14:12;101600.19;;;17.78;100.00
75460;BME280;64039;53.060;9.342;2023-06-22T05:16:38;101601.97;;;17.79;100.00
75460;BME280;64039;53.060;9.342;2023-06-22T05:19:04;101592.34;;;17.89;100.00
75460;BME280;64039;53.060;9.342;2023-06-22T05:21:30;101591.53;;;18.02;100.00
75460;BME280;64039;53.060;9.342;2023-06-22T05:23:56;101583.66;;;18.02;100.00
75460;BME280;64039;53.060;9.342;2023-06-22T05:26:26;101590.66;;;18.06;100.00
75460;BME280;64039;53.060;9.342;2023-06-22T05:28:52;101587.19;;;18.11;100.00
75460;BME280;64039;53.060;9.342;2023-06-22T05:31:18;101588.94;;;18.19;100.00
75460;BME280;64039;53.060;9.342;2023-06-22T05:33:47;101581.94;;;18.26;100.00
75460;BME280;64039;53.060;9.342;2023-06-22T05:36:13;101584.56;;;18.35;100.00
75460;BME280;64039;53.060;9.342;2023-06-22T05:38:39;101588.97;;;18.49;100.00
75460;BME280;64039;53.060;9.342;2023-06-22T05:41:05;101585.44;;;18.56;100.00
75460;BME280;64039;53.060;9.342;2023-06-22T05:43:31;101578.41;;;18.64;100.00
75460;BME280;64039;53.060;9.342;2023-06-22T05:45:56;101582.84;;;18.82;100.00
75460;BME280;64039;53.060;9.342;2023-06-22T05:48:22;101589.00;;;19.00;100.00
75460;BME280;64039;53.060;9.342;2023-06-22T05:50:48;101583.69;;;19.12;100.00
75460;BME280;64039;53.060;9.342;2023-06-22T05:53:13;101582.78;;;19.24;100.00
75460;BME280;64039;53.060;9.342;2023-06-22T05:55:38;101581.88;;;19.35;100.00
75460;BME280;64039;53.060;9.342;2023-06-22T05:58:04;101589.81;;;19.33;100.00
75460;BME280;64039;53.060;9.342;2023-06-22T06:00:30;101581.84;;;19.36;100.00
75460;BME280;64039;53.060;9.342;2023-06-22T06:02:56;101583.59;;;19.42;100.00
75460;BME280;64039;53.060;9.342;2023-06-22T06:05:22;101580.03;;;19.57;100.00
75460;BME280;64039;53.060;9.342;2023-06-22T06:07:49;101576.50;;;19.62;100.00
75460;BME280;64039;53.060;9.342;2023-06-22T06:10:14;101579.09;;;19.69;100.00
75460;BME280;64039;53.060;9.342;2023-06-22T06:12:40;101574.66;;;19.78;100.00
75460;BME280;64039;53.060;9.342;2023-06-22T06:15:05;101576.41;;;19.89;100.00
75460;BME280;64039;53.060;9.342;2023-06-22T06:17:31;101577.28;;;19.89;100.00
75460;BME280;64039;53.060;9.342;2023-06-22T06:19:58;101571.91;;;20.02;100.00
75460;BME280;64039;53.060;9.342;2023-06-22T06:22:23;101574.44;;;20.20;100.00
75460;BME280;64039;53.060;9.342;2023-06-22T06:24:49;101573.56;;;20.21;100.00
75460;BME280;64039;53.060;9.342;2023-06-22T06:27:15;101571.69;;;20.36;100.00
75460;BME280;64039;53.060;9.342;2023-06-22T06:29:43;101568.88;;;20.56;100.00
75460;BME280;64039;53.060;9.342;2023-06-22T06:32:11;101563.56;;;20.57;100.00
75460;BME280;64039;53.060;9.342;2023-06-22T06:34:36;101572.06;;;20.95;99.18
75460;BME280;64039;53.060;9.342;2023-06-22T06:37:02;101565.06;;;20.94;97.02
75460;BME280;64039;53.060;9.342;2023-06-22T06:39:27;101566.78;;;20.97;95.45
75460;BME280;64039;53.060;9.342;2023-06-22T06:41:53;101564.84;;;21.13;95.34
75460;BME280;64039;53.060;9.342;2023-06-22T06:44:18;101562.94;;;21.26;93.22
75460;BME280;64039;53.060;9.342;2023-06-22T06:46:43;101564.44;;;21.47;94.78
75460;BME280;64039;53.060;9.342;2023-06-22T06:49:09;101566.06;;;21.62;95.87
75460;BME280;64039;53.060;9.342;2023-06-22T06:51:34;101573.06;;;21.67;94.95
75460;BME280;64039;53.060;9.342;2023-06-22T06:54:00;101577.44;;;21.70;94.27
75460;BME280;64039;53.060;9.342;2023-06-22T06:56:25;101566.84;;;21.70;91.41
75460;BME280;64039;53.060;9.342;2023-06-22T06:58:51;101569.41;;;21.76;91.50
75460;BME280;64039;53.060;9.342;2023-06-22T07:01:16;101558.09;;;21.65;90.38
75460;BME280;64039;53.060;9.342;2023-06-22T07:03:42;101569.28;;;21.86;92.84
75460;BME280;64039;53.060;9.342;2023-06-22T07:06:08;101564.09;;;21.78;92.28
75460;BME280;64039;53.060;9.342;2023-06-22T07:08:33;101571.13;;;21.79;91.37
75460;BME280;64039;53.060;9.342;2023-06-22T07:11:00;101571.16;;;21.77;92.50
75460;BME280;64039;53.060;9.342;2023-06-22T07:13:26;101561.56;;;21.67;87.98
75460;BME280;64039;53.060;9.342;2023-06-22T07:15:51;101563.84;;;21.95;92.14
75460;BME280;64039;53.060;9.342;2023-06-22T07:18:17;101569.13;;;21.98;92.53
75460;BME280;64039;53.060;9.342;2023-06-22T07:20:42;101569.91;;;22.03;86.92
75460;BME280;64039;53.060;9.342;2023-06-22T07:23:07;101557.94;;;22.37;89.09
75460;BME280;64039;53.060;9.342;2023-06-22T07:25:33;101558.44;;;22.59;86.41
75460;BME280;64039;53.060;9.342;2023-06-22T07:28:01;101560.19;;;22.61;85.50
75460;BME280;64039;53.060;9.342;2023-06-22T07:30:27;101558.16;;;22.76;87.36
75460;BME280;64039;53.060;9.342;2023-06-22T07:32:53;101560.00;;;22.72;85.16
75460;BME280;64039;53.060;9.342;2023-06-22T07:35:19;101561.69;;;22.76;86.12
75460;BME280;64039;53.060;9.342;2023-06-22T07:37:44;101563.25;;;22.88;86.91
75460;BME280;64039;53.060;9.342;2023-06-22T07:40:10;101562.00;;;23.08;83.90
75460;BME280;64039;53.060;9.342;2023-06-22T07:42:36;101561.94;;;23.11;82.23
75460;BME280;64039;53.060;9.342;2023-06-22T07:45:03;101552.28;;;23.07;81.70
75460;BME280;64039;53.060;9.342;2023-06-22T07:47:29;101553.75;;;23.23;78.31
75460;BME280;64039;53.060;9.342;2023-06-22T07:49:58;101553.34;;;22.97;80.42
75460;BME280;64039;53.060;9.342;2023-06-22T07:52:26;101543.13;;;23.23;76.41
75460;BME280;64039;53.060;9.342;2023-06-22T07:54:52;101548.16;;;23.37;76.05
75460;BME280;64039;53.060;9.342;2023-06-22T07:57:17;101556.81;;;23.49;75.84
75460;BME280;64039;53.060;9.342;2023-06-22T07:59:43;101548.31;;;23.72;77.39
75460;BME280;64039;53.060;9.342;2023-06-22T08:02:09;101546.91;;;23.96;73.40
75460;BME280;64039;53.060;9.342;2023-06-22T08:04:35;101546.66;;;24.09;69.28
75460;BME280;64039;53.060;9.342;2023-06-22T08:07:01;101536.06;;;24.06;71.24
75460;BME280;64039;53.060;9.342;2023-06-22T08:09:31;101542.72;;;23.84;71.31
75460;BME280;64039;53.060;9.342;2023-06-22T08:11:56;101533.91;;;23.82;68.27
75460;BME280;64039;53.060;9.342;2023-06-22T08:14:23;101535.44;;;23.96;69.48
75460;BME280;64039;53.060;9.342;2023-06-22T08:16:49;101523.91;;;24.31;68.89
75460;BME280;64039;53.060;9.342;2023-06-22T08:19:14;101523.25;;;24.23;69.13
75460;BME280;64039;53.060;9.342;2023-06-22T08:21:40;101531.59;;;24.08;69.51
75460;BME280;64039;53.060;9.342;2023-06-22T08:24:05;101521.50;;;24.22;67.52
75460;BME280;64039;53.060;9.342;2023-06-22T08:26:32;101520.97;;;24.42;64.97
75460;BME280;64039;53.060;9.342;2023-06-22T08:29:01;101527.09;;;24.46;67.31
75460;BME280;64039;53.060;9.342;2023-06-22T08:31:27;101519.47;;;24.68;67.79
75460;BME280;64039;53.060;9.342;2023-06-22T08:33:53;101530.34;;;24.92;66.30
75460;BME280;64039;53.060;9.342;2023-06-22T08:36:18;101538.88;;;25.05;65.07
75460;BME280;64039;53.060;9.342;2023-06-22T08:38:44;101530.69;;;25.11;63.84
75460;BME280;64039;53.060;9.342;2023-06-22T08:41:10;101525.91;;;25.24;63.54
75460;BME280;64039;53.060;9.342;2023-06-22T08:43:36;101524.50;;;25.10;62.03
75460;BME280;64039;53.060;9.342;2023-06-22T08:46:01;101531.84;;;25.02;64.45
75460;BME280;64039;53.060;9.342;2023-06-22T08:48:28;101520.28;;;25.03;65.09
75460;BME280;64039;53.060;9.342;2023-06-22T08:50:53;101522.50;;;25.19;66.77
75460;BME280;64039;53.060;9.342;2023-06-22T08:53:19;101515.44;;;25.18;63.59
75460;BME280;64039;53.060;9.342;2023-06-22T08:55:45;101517.69;;;25.32;63.53
75460;BME280;64039;53.060;9.342;2023-06-22T08:58:10;101507.63;;;25.10;67.83
75460;BME280;64039;53.060;9.342;2023-06-22T09:00:36;101500.88;;;24.98;71.59
75460;BME280;64039;53.060;9.342;2023-06-22T09:03:02;101506.34;;;25.25;67.13
75460;BME280;64039;53.060;9.342;2023-06-22T09:05:29;101506.94;;;25.35;67.12
75460;BME280;64039;53.060;9.342;2023-06-22T09:07:56;101501.06;;;25.53;61.88
75460;BME280;64039;53.060;9.342;2023-06-22T09:10:21;101500.84;;;25.61;61.90
75460;BME280;64039;53.060;9.342;2023-06-22T09:12:47;101499.25;;;25.55;61.36
75460;BME280;64039;53.060;9.342;2023-06-22T09:15:13;101496.34;;;25.92;61.24
75460;BME280;64039;53.060;9.342;2023-06-22T09:17:40;101494.09;;;26.06;59.08
75460;BME280;64039;53.060;9.342;2023-06-22T09:20:06;101493.72;;;26.18;58.31
75460;BME280;64039;53.060;9.342;2023-06-22T09:22:32;101488.72;;;26.34;56.50
75460;BME280;64039;53.060;9.342;2023-06-22T09:24:58;101486.34;;;26.25;56.99
75460;BME280;64039;53.060;9.342;2023-06-22T09:27:25;101484.34;;;26.32;56.06
75460;BME280;64039;53.060;9.342;2023-06-22T09:29:50;101483.81;;;26.22;58.65
75460;BME280;64039;53.060;9.342;2023-06-22T09:32:15;101474.66;;;26.02;57.82
75460;BME280;64039;53.060;9.342;2023-06-22T09:34:41;101475.84;;;25.94;56.75
75460;BME280;64039;53.060;9.342;2023-06-22T09:37:07;101476.13;;;26.13;57.40
75460;BME280;64039;53.060;9.342;2023-06-22T09:39:32;101481.16;;;26.47;58.30
75460;BME280;64039;53.060;9.342;2023-06-22T09:41:59;101478.47;;;26.22;55.35
75460;BME280;64039;53.060;9.342;2023-06-22T09:44:25;101469.03;;;26.12;58.12
75460;BME280;64039;53.060;9.342;2023-06-22T09:46:50;101462.03;;;26.34;57.05
75460;BME280;64039;53.060;9.342;2023-06-22T09:49:16;101458.94;;;26.47;57.38
75460;BME280;64039;53.060;9.342;2023-06-22T09:51:41;101460.34;;;26.57;57.03
75460;BME280;64039;53.060;9.342;2023-06-22T09:54:07;101460.59;;;26.75;55.47
75460;BME280;64039;53.060;9.342;2023-06-22T09:56:32;101455.66;;;26.89;54.44
75460;BME280;64039;53.060;9.342;2023-06-22T09:58:58;101453.81;;;26.66;54.96
75460;BME280;64039;53.060;9.342;2023-06-22T10:01:23;101447.97;;;26.29;58.23
75460;BME280;64039;53.060;9.342;2023-06-22T10:03:53;101453.69;;;26.44;57.53
75460;BME280;64039;53.060;9.342;2023-06-22T10:06:21;101435.88;;;26.70;54.34
75460;BME280;64039;53.060;9.342;2023-06-22T10:08:47;101430.97;;;26.57;55.85
75460;BME280;64039;53.060;9.342;2023-06-22T10:11:13;101434.59;;;26.56;56.36
75460;BME280;64039;53.060;9.342;2023-06-22T10:13:39;101429.34;;;26.53;55.85
75460;BME280;64039;53.060;9.342;2023-06-22T10:16:04;101438.81;;;26.62;57.63
75460;BME280;64039;53.060;9.342;2023-06-22T10:18:30;101432.75;;;26.33;56.66
75460;BME280;64039;53.060;9.342;2023-06-22T10:20:56;101434.91;;;26.47;57.46
75460;BME280;64039;53.060;9.342;2023-06-22T10:23:21;101429.59;;;26.47;57.56
75460;BME280;64039;53.060;9.342;2023-06-22T10:25:47;101416.22;;;26.21;56.43
75460;BME280;64039;53.060;9.342;2023-06-22T10:28:12;101417.22;;;26.44;55.74
75460;BME280;64039;53.060;9.342;2023-06-22T10:30:41;101413.72;;;26.91;55.86
75460;BME280;64039;53.060;9.342;2023-06-22T10:33:08;101404.19;;;27.08;55.59
75460;BME280;64039;53.060;9.342;2023-06-22T10:35:33;101406.50;;;27.17;55.26
75460;BME280;64039;53.060;9.342;2023-06-22T10:37:59;101400.81;;;27.26;55.13
75460;BME280;64039;53.060;9.342;2023-06-22T10:40:25;101398.09;;;27.28;56.35
75460;BME280;64039;53.060;9.342;2023-06-22T10:42:50;101389.03;;;27.54;54.46
75460;BME280;64039;53.060;9.342;2023-06-22T10:45:16;101400.22;;;27.64;54.40
75460;BME280;64039;53.060;9.342;2023-06-22T10:47:41;101395.50;;;27.91;55.35
75460;BME280;64039;53.060;9.342;2023-06-22T10:50:10;101396.00;;;28.22;53.26
75460;BME280;64039;53.060;9.342;2023-06-22T10:52:36;101388.50;;;28.51;51.67
75460;BME280;64039;53.060;9.342;2023-06-22T10:55:02;101386.38;;;28.18;52.81
75460;BME280;64039;53.060;9.342;2023-06-22T10:57:27;101397.34;;;28.32;53.38
75460;BME280;64039;53.060;9.342;2023-06-22T10:59:53;101396.41;;;28.33;51.94
75460;BME280;64039;53.060;9.342;2023-06-22T11:02:18;101387.66;;;28.30;52.85
75460;BME280;64039;53.060;9.342;2023-06-22T11:04:44;101388.91;;;28.42;51.82
75460;BME280;64039;53.060;9.342;2023-06-22T11:07:10;101387.84;;;28.25;51.08
75460;BME280;64039;53.060;9.342;2023-06-22T11:09:35;101393.13;;;28.27;52.66
75460;BME280;64039;53.060;9.342;2023-06-22T11:12:01;101394.88;;;28.28;52.34
75460;BME280;64039;53.060;9.342;2023-06-22T11:14:26;101397.72;;;28.02;51.56
75460;BME280;64039;53.060;9.342;2023-06-22T11:16:52;101400.69;;;28.17;52.21
75460;BME280;64039;53.060;9.342;2023-06-22T11:19:18;101389.66;;;28.24;52.93
75460;BME280;64039;53.060;9.342;2023-06-22T11:21:44;101396.16;;;28.19;52.75
75460;BME280;64039;53.060;9.342;2023-06-22T11:24:09;101390.81;;;28.19;53.34
75460;BME280;64039;53.060;9.342;2023-06-22T11:26:35;101388.44;;;27.90;52.01
75460;BME280;64039;53.060;9.342;2023-06-22T11:29:01;101388.81;;;27.81;53.07
75460;BME280;64039;53.060;9.342;2023-06-22T11:31:30;101385.91;;;27.43;53.64
75460;BME280;64039;53.060;9.342;2023-06-22T11:33:55;101374.22;;;27.45;53.81
75460;BME280;64039;53.060;9.342;2023-06-22T11:36:21;101366.38;;;27.63;54.80
75460;BME280;64039;53.060;9.342;2023-06-22T11:38:46;101366.38;;;27.63;54.96
75460;BME280;64039;53.060;9.342;2023-06-22T11:41:12;101358.13;;;27.69;55.92
75460;BME280;64039;53.060;9.342;2023-06-22T11:43:37;101363.13;;;27.77;55.50
75460;BME280;64039;53.060;9.342;2023-06-22T11:46:03;101351.38;;;27.81;54.36
75460;BME280;64039;53.060;9.342;2023-06-22T11:48:29;101349.94;;;27.72;53.44
75460;BME280;64039;53.060;9.342;2023-06-22T11:50:55;101360.06;;;27.43;55.32
75460;BME280;64039;53.060;9.342;2023-06-22T11:53:22;101353.94;;;27.62;56.55
75460;BME280;64039;53.060;9.342;2023-06-22T11:55:47;101348.47;;;27.65;55.96
75460;BME280;64039;53.060;9.342;2023-06-22T11:58:14;101343.75;;;27.27;57.06
75460;BME280;64039;53.060;9.342;2023-06-22T12:00:40;101341.97;;;27.28;57.56
75460;BME280;64039;53.060;9.342;2023-06-22T12:03:07;101341.69;;;27.34;60.18
75460;BME280;64039;53.060;9.342;2023-06-22T12:05:33;101345.22;;;27.35;59.15
75460;BME280;64039;53.060;9.342;2023-06-22T12:07:58;101347.53;;;27.22;56.89
75460;BME280;64039;53.060;9.342;2023-06-22T12:10:25;101329.28;;;27.33;57.45
75460;BME280;64039;53.060;9.342;2023-06-22T12:12:50;101338.97;;;27.36;56.80
75460;BME280;64039;53.060;9.342;2023-06-22T12:15:16;101332.38;;;27.22;57.22
75460;BME280;64039;53.060;9.342;2023-06-22T12:17:42;101330.16;;;27.11;59.52
75460;BME280;64039;53.060;9.342;2023-06-22T12:20:08;101334.16;;;27.22;59.88
75460;BME280;64039;53.060;9.342;2023-06-22T12:22:34;101327.63;;;27.29;59.49
75460;BME280;64039;53.060;9.342;2023-06-22T12:25:00;101318.94;;;27.24;58.63
75460;BME280;64039;53.060;9.342;2023-06-22T12:27:25;101316.91;;;27.08;59.43
75460;BME280;64039;53.060;9.342;2023-06-22T12:29:51;101306.59;;;26.99;60.57
75460;BME280;64039;53.060;9.342;2023-06-22T12:32:17;101311.06;;;27.21;61.63
75460;BME280;64039;53.060;9.342;2023-06-22T12:34:43;101312.88;;;27.20;59.39
75460;BME280;64039;53.060;9.342;2023-06-22T12:37:09;101315.66;;;27.17;59.22
75460;BME280;64039;53.060;9.342;2023-06-22T12:39:35;101313.41;;;27.28;59.13
75460;BME280;64039;53.060;9.342;2023-06-22T12:42:01;101308.53;;;27.18;58.69
75460;BME280;64039;53.060;9.342;2023-06-22T12:44:26;101305.34;;;26.86;61.22
75460;BME280;64039;53.060;9.342;2023-06-22T12:46:52;101302.13;;;26.77;61.85
75460;BME280;64039;53.060;9.342;2023-06-22T12:49:17;101310.31;;;26.71;61.80
75460;BME280;64039;53.060;9.342;2023-06-22T12:51:43;101302.22;;;26.50;63.46
75460;BME280;64039;53.060;9.342;2023-06-22T12:54:09;101293.97;;;26.57;62.54